Time;durP1;ratioP1;P1;durP2;ratioP2;P2;SDS_P1;SDS_P2;PMS_P1;PMS_P2;Temp;Humidity;BMP_temperature;BMP_pressure;BME280_temperature;BME280_humidity;BME280_pressure;Samples;Min_cycle;Max_cycle;Signal;HPM_P1;HPM_P2
2023/04/21 00:01:11;;;;;;;299.30;69.47;;;4.40;99.90;;;3.15;100.00;96972.19;5010480;28;20404;-76
2023/04/21 00:03:37;;;;;;;276.13;67.80;;;4.40;99.90;;;3.16;100.00;96978.22;5010338;28;20425;-76
2023/04/21 00:06:05;;;;;;;276.38;69.22;;;4.30;99.90;;;3.15;100.00;96980.03;5010529;28;20503;-76
2023/04/21 00:08:31;;;;;;;298.05;73.72;;;4.30;99.90;;;3.17;100.00;96974.56;5010314;28;20818;-76
2023/04/21 00:10:57;;;;;;;294.40;72.43;;;4.40;99.90;;;3.17;100.00;96983.22;5012058;28;20771;-76
2023/04/21 00:13:23;;;;;;;283.55;68.78;;;4.40;99.90;;;3.13;100.00;96976.81;5013845;28;20404;-76
2023/04/21 00:15:50;;;;;;;292.80;72.45;;;4.40;99.90;;;3.17;100.00;96966.72;5014475;28;20408;-76
2023/04/21 00:18:16;;;;;;;312.38;68.18;;;4.40;99.90;;;3.14;100.00;96969.78;4995111;28;20776;-76
2023/04/21 00:20:43;;;;;;;260.30;60.43;;;4.30;99.90;;;3.10;100.00;96972.81;4994633;28;20422;-76
2023/04/21 00:23:12;;;;;;;218.60;53.05;;;4.40;99.90;;;3.10;100.00;96979.84;4994717;28;20900;-76
2023/04/21 00:25:38;;;;;;;217.65;50.85;;;4.40;99.90;;;3.08;100.00;96977.44;4993237;28;20426;-76
2023/04/21 00:28:04;;;;;;;189.32;46.13;;;4.40;99.90;;;3.08;100.00;96979.28;4994644;28;20807;-76
2023/04/21 00:30:30;;;;;;;215.07;49.40;;;4.30;99.90;;;3.07;100.00;96975.88;4994443;28;20402;-76
2023/04/21 00:32:56;;;;;;;245.38;56.35;;;4.30;99.90;;;3.08;100.00;96974.84;4994519;28;20410;-76
2023/04/21 00:35:22;;;;;;;224.48;53.38;;;4.30;99.90;;;3.07;100.00;96975.06;4993533;28;20516;-76
2023/04/21 00:37:49;;;;;;;188.90;47.45;;;4.40;99.90;;;3.07;100.00;96967.22;5007850;28;20404;-76
2023/04/21 00:40:17;;;;;;;238.10;57.13;;;4.30;99.90;;;3.09;100.00;96962.56;5004113;28;20459;-76
2023/04/21 00:42:43;;;;;;;198.80;48.90;;;4.30;99.90;;;3.04;100.00;96962.41;4993754;28;20466;-76
2023/04/21 00:45:10;;;;;;;255.52;60.33;;;4.30;99.90;;;3.06;100.00;96957.78;4994037;28;20446;-76
2023/04/21 00:47:36;;;;;;;270.20;63.45;;;4.30;99.90;;;3.07;100.00;96954.97;4994194;28;20505;-76
2023/04/21 00:50:05;;;;;;;267.73;62.00;;;4.30;99.90;;;3.02;100.00;96959.19;4994131;28;20920;-76
2023/04/21 00:52:33;;;;;;;263.65;63.25;;;4.30;99.90;;;3.05;100.00;96956.97;4994291;28;20402;-76
2023/04/21 00:54:59;;;;;;;255.07;59.67;;;4.30;99.90;;;2.98;100.00;96951.00;4994088;28;20932;-76
2023/04/21 00:57:27;;;;;;;273.50;64.47;;;4.20;99.90;;;3.02;100.00;96949.53;4996642;28;20403;-76
2023/04/21 00:59:54;;;;;;;260.48;62.08;;;4.20;99.90;;;2.97;100.00;96956.44;4996069;28;20462;-75
2023/04/21 01:02:21;;;;;;;266.25;65.07;;;4.20;99.90;;;2.99;100.00;96949.19;4992417;28;20414;-75
2023/04/21 01:04:47;;;;;;;240.97;55.50;;;4.20;99.90;;;2.87;100.00;96954.28;4993544;28;20421;-75
2023/04/21 01:07:13;;;;;;;203.35;48.05;;;4.10;99.90;;;2.83;100.00;96947.91;4993772;28;20584;-76
2023/04/21 01:09:39;;;;;;;188.70;45.90;;;4.10;99.90;;;2.82;100.00;96948.09;4993670;28;20469;-75
2023/04/21 01:12:08;;;;;;;175.40;42.80;;;4.10;99.90;;;2.79;100.00;96940.69;4993778;28;20454;-75
2023/04/21 01:14:36;;;;;;;161.02;41.08;;;4.10;99.90;;;2.75;100.00;96945.53;4993513;28;20534;-74
2023/04/21 01:17:04;;;;;;;256.75;59.47;;;4.00;99.90;;;2.81;100.00;96943.88;4993770;28;20909;-74
2023/04/21 01:19:33;;;;;;;251.63;62.50;;;4.00;99.90;;;2.79;100.00;96941.47;4993507;28;20395;-74
2023/04/21 01:22:00;;;;;;;246.63;62.77;;;4.00;99.90;;;2.76;100.00;96943.72;4992618;28;20877;-76
2023/04/21 01:24:36;;;;;;;221.63;55.43;;;4.00;99.90;;;2.63;100.00;96937.56;4993373;28;20426;-75
2023/04/21 01:27:02;;;;;;;252.52;58.47;;;3.90;99.90;;;2.62;100.00;96938.59;4993368;28;25170;-75
2023/04/21 01:29:31;;;;;;;250.02;62.40;;;3.90;99.90;;;2.66;100.00;96936.34;4993312;28;20769;-74
2023/04/21 01:31:57;;;;;;;249.40;64.45;;;3.90;99.90;;;2.66;100.00;96939.78;4993336;28;20423;-75
2023/04/21 01:34:23;;;;;;;254.63;59.60;;;3.90;99.90;;;2.55;100.00;96942.28;4993320;28;20411;-76
2023/04/21 01:36:49;;;;;;;201.40;52.40;;;3.80;99.90;;;2.50;100.00;96950.72;4993206;28;20476;-76
2023/04/21 01:39:16;;;;;;;209.35;50.78;;;3.80;99.90;;;2.48;100.00;96950.13;4991955;28;20510;-76
2023/04/21 01:41:42;;;;;;;255.50;57.35;;;3.80;99.90;;;2.47;100.00;96959.00;4993124;28;20407;-76
2023/04/21 01:44:08;;;;;;;271.63;67.85;;;3.80;99.90;;;2.58;100.00;96950.47;4993086;28;20759;-76
2023/04/21 01:46:34;;;;;;;265.20;65.45;;;3.80;99.90;;;2.54;100.00;96940.66;4991882;28;20502;-76
2023/04/21 01:49:00;;;;;;;271.93;65.70;;;3.70;99.90;;;2.48;100.00;96944.13;4993151;28;20442;-76
2023/04/21 01:51:26;;;;;;;270.85;64.63;;;3.70;99.90;;;2.39;100.00;96950.59;4992957;28;20418;-76
2023/04/21 01:53:52;;;;;;;261.17;60.45;;;3.70;99.90;;;2.34;100.00;96952.03;4992978;28;20418;-76
2023/04/21 01:56:19;;;;;;;228.23;55.88;;;3.60;99.90;;;2.32;100.00;96948.03;4993035;28;20406;-76
2023/04/21 01:58:45;;;;;;;288.17;63.90;;;3.60;99.90;;;2.35;100.00;96945.00;4992814;28;20403;-76
2023/04/21 02:01:11;;;;;;;285.52;68.07;;;3.60;99.90;;;2.36;100.00;96943.97;4992676;28;20477;-76
2023/04/21 02:03:37;;;;;;;303.73;70.10;;;3.60;99.90;;;2.36;100.00;96943.97;4992673;28;20413;-76
2023/04/21 02:06:03;;;;;;;260.75;59.35;;;3.60;99.90;;;2.31;100.00;96946.44;4992785;28;20465;-76
2023/04/21 02:08:29;;;;;;;239.52;55.80;;;3.60;99.90;;;2.30;100.00;96944.81;4992713;28;20422;-76
2023/04/21 02:10:55;;;;;;;216.68;53.08;;;3.60;99.90;;;2.28;100.00;96939.81;4992591;28;20442;-75
2023/04/21 02:13:22;;;;;;;206.33;49.30;;;3.60;99.90;;;2.26;100.00;96938.41;4992633;28;20458;-76
2023/04/21 02:15:48;;;;;;;239.15;53.28;;;3.60;99.90;;;2.24;100.00;96938.63;4992661;28;20780;-76
2023/04/21 02:18:15;;;;;;;246.13;56.43;;;3.50;99.90;;;2.22;100.00;96937.22;4992631;28;20415;-76
2023/04/21 02:20:41;;;;;;;251.68;56.90;;;3.50;99.90;;;2.20;100.00;96934.03;4992469;28;20414;-76
2023/04/21 02:23:07;;;;;;;206.88;50.42;;;3.50;99.90;;;2.19;100.00;96942.88;4992724;28;20411;-76
2023/04/21 02:25:33;;;;;;;244.30;55.92;;;3.50;99.90;;;2.16;100.00;96933.66;4992912;28;20403;-76
2023/04/21 02:27:59;;;;;;;222.57;52.83;;;3.50;99.90;;;2.14;100.00;96932.25;4992878;28;20458;-76
2023/04/21 02:30:26;;;;;;;234.18;56.72;;;3.40;99.90;;;2.14;100.00;96927.03;4992891;28;20449;-76
2023/04/21 02:32:52;;;;;;;278.60;66.80;;;3.40;99.90;;;2.18;100.00;96939.44;4991945;28;20399;-76
2023/04/21 02:35:18;;;;;;;297.60;73.18;;;3.40;99.90;;;2.18;100.00;96936.84;4991968;28;20923;-76
2023/04/21 02:37:44;;;;;;;318.70;78.40;;;3.40;99.90;;;2.18;100.00;96941.28;4992391;28;20448;-76
2023/04/21 02:40:12;;;;;;;319.33;76.22;;;3.40;99.90;;;2.13;100.00;96931.44;4991445;28;20429;-75
2023/04/21 02:42:38;;;;;;;326.20;78.32;;;3.30;99.90;;;2.09;100.00;96940.72;4992106;28;20457;-76
2023/04/21 02:45:06;;;;;;;329.70;80.05;;;3.30;99.90;;;2.11;100.00;96943.09;4991918;28;20410;-76
2023/04/21 02:47:33;;;;;;;279.92;66.93;;;3.30;99.90;;;2.00;100.00;96939.34;4991815;28;20565;-76
2023/04/21 02:49:59;;;;;;;319.80;73.03;;;3.30;99.90;;;2.02;100.00;96939.16;4991793;28;20412;-76
2023/04/21 02:52:25;;;;;;;266.13;62.28;;;3.30;99.90;;;2.00;100.00;96947.19;4990555;28;20419;-76
2023/04/21 02:54:51;;;;;;;263.33;60.33;;;3.30;99.90;;;1.99;100.00;96948.19;4991776;28;20518;-76
2023/04/21 02:57:17;;;;;;;295.30;69.82;;;3.30;99.90;;;2.02;100.00;96949.59;4991783;28;20410;-76
2023/04/21 02:59:43;;;;;;;325.53;77.23;;;3.30;99.90;;;2.10;100.00;96942.31;4991841;28;20970;-76
2023/04/21 03:02:09;;;;;;;291.65;66.55;;;3.40;99.90;;;1.99;100.00;96931.72;4990348;28;20417;-76
2023/04/21 03:04:36;;;;;;;302.38;67.80;;;3.30;99.90;;;1.99;100.00;96935.13;4991481;28;20738;-76
2023/04/21 03:07:02;;;;;;;292.77;64.72;;;3.30;99.90;;;1.98;100.00;96940.56;4991740;28;20469;-75
2023/04/21 03:09:28;;;;;;;251.63;58.45;;;3.30;99.90;;;1.97;100.00;96941.56;4991491;28;20520;-76
2023/04/21 03:11:54;;;;;;;284.58;64.57;;;3.30;99.90;;;1.98;100.00;96936.13;4991533;28;20434;-76
2023/04/21 03:14:20;;;;;;;297.40;68.73;;;3.30;99.90;;;2.02;100.00;96926.09;4991367;28;20418;-76
2023/04/21 03:16:46;;;;;;;316.73;70.97;;;3.30;99.90;;;2.04;100.00;96924.06;4991506;28;20407;-76
2023/04/21 03:19:12;;;;;;;312.58;70.82;;;3.30;99.90;;;2.07;100.00;96921.03;4991451;28;20441;-75
2023/04/21 03:21:39;;;;;;;312.50;67.55;;;3.30;99.90;;;2.04;100.00;96916.22;4991355;28;20431;-76
2023/04/21 03:24:06;;;;;;;318.00;69.72;;;3.30;99.90;;;2.09;100.00;96916.44;4991354;28;20399;-76
2023/04/21 03:26:32;;;;;;;339.25;75.00;;;3.30;99.90;;;2.12;100.00;96923.81;4991177;28;20397;-75
2023/04/21 03:28:58;;;;;;;260.53;58.87;;;3.40;99.90;;;2.04;100.00;96926.66;4991393;28;20398;-75
2023/04/21 03:31:24;;;;;;;251.52;60.35;;;3.30;99.90;;;2.04;100.00;96919.63;4991326;28;20395;-76
2023/04/21 03:33:50;;;;;;;336.70;74.57;;;3.30;99.90;;;2.16;100.00;96919.81;4991075;28;20950;-75
2023/04/21 03:36:16;;;;;;;325.50;69.00;;;3.40;99.90;;;2.12;100.00;96916.78;4991198;28;20426;-76
2023/04/21 03:38:43;;;;;;;307.80;65.78;;;3.40;99.90;;;2.08;100.00;96925.25;4991211;28;20411;-76
2023/04/21 03:41:09;;;;;;;287.63;61.25;;;3.40;99.90;;;2.07;100.00;96918.44;4990873;28;20403;-76
2023/04/21 03:43:35;;;;;;;245.30;53.50;;;3.30;99.90;;;2.08;100.00;96922.66;4991020;28;20962;-75
2023/04/21 03:46:01;;;;;;;220.47;49.60;;;3.40;99.90;;;2.10;100.00;96911.00;4989291;28;20847;-76
2023/04/21 03:48:27;;;;;;;207.15;46.53;;;3.40;99.90;;;2.14;100.00;96911.38;4992556;28;20426;-76
2023/04/21 03:50:53;;;;;;;242.45;52.00;;;3.40;99.90;;;2.15;100.00;96923.41;4990950;28;20403;-74
2023/04/21 03:53:19;;;;;;;182.02;43.15;;;3.40;99.90;;;2.16;100.00;96927.63;4982022;28;20417;-75
2023/04/21 03:55:49;;;;;;;307.20;63.60;;;3.40;99.90;;;2.18;100.00;96926.41;4972574;28;20416;-74
2023/04/21 03:58:15;;;;;;;264.58;57.13;;;3.50;99.90;;;2.16;100.00;96922.41;4971761;28;20851;-76
2023/04/21 04:00:41;;;;;;;222.43;50.63;;;3.40;99.90;;;2.15;100.00;96926.03;4971784;28;20486;-75
2023/04/21 04:03:07;;;;;;;224.47;50.33;;;3.40;99.90;;;2.15;100.00;96926.03;4971867;28;21028;-76
2023/04/21 04:05:34;;;;;;;203.93;46.55;;;3.40;99.90;;;2.14;100.00;96932.25;4992670;28;20418;-76
2023/04/21 04:08:00;;;;;;;230.40;51.60;;;3.40;99.90;;;2.15;100.00;96926.84;4990919;28;20749;-75
2023/04/21 04:10:26;;;;;;;252.40;56.10;;;3.40;99.90;;;2.15;100.00;96923.41;4985912;28;20780;-76
2023/04/21 04:12:54;;;;;;;206.77;48.22;;;3.40;99.90;;;2.16;100.00;96925.03;4986923;28;20424;-74
2023/04/21 04:15:20;;;;;;;221.80;49.97;;;3.40;99.90;;;2.18;100.00;96926.41;4990021;28;20422;-76
2023/04/21 04:17:46;;;;;;;264.55;57.65;;;3.50;99.90;;;2.21;100.00;96925.19;4982986;28;20401;-75
2023/04/21 04:20:11;;;;;;;211.60;47.45;;;3.50;99.90;;;2.22;100.00;96932.00;4988493;28;20402;-74
2023/04/21 04:22:38;;;;;;;196.93;44.17;;;3.50;99.90;;;2.23;100.00;96931.00;4972816;28;20572;-74
2023/04/21 04:25:06;;;;;;;178.85;42.13;;;3.50;99.90;;;2.23;100.00;96931.81;4989134;28;20761;-77
2023/04/21 04:27:32;;;;;;;193.32;44.08;;;3.50;99.90;;;2.25;100.00;96935.03;4971467;28;20789;-75
2023/04/21 04:29:59;;;;;;;210.13;46.83;;;3.50;99.90;;;2.25;100.00;96932.41;4971173;28;20901;-76
2023/04/21 04:32:28;;;;;;;197.50;45.08;;;3.50;99.90;;;2.27;100.00;96942.63;4971672;28;20400;-76
2023/04/21 04:34:57;;;;;;;194.98;44.63;;;3.50;99.90;;;2.27;100.00;96927.75;4971424;28;20403;-76
2023/04/21 04:37:24;;;;;;;197.00;45.63;;;3.50;99.90;;;2.29;100.00;96938.81;4982333;28;20418;-76
2023/04/21 04:39:52;;;;;;;212.68;47.65;;;3.60;99.90;;;2.32;100.00;96937.59;4987915;28;20414;-76
2023/04/21 04:42:19;;;;;;;264.08;59.75;;;3.60;99.90;;;2.36;100.00;96932.75;4990360;28;20411;-76
2023/04/21 04:44:45;;;;;;;275.75;64.57;;;3.60;99.90;;;2.41;100.00;96933.69;4982827;28;20465;-74
2023/04/21 04:47:13;;;;;;;378.50;78.30;;;3.60;99.90;;;2.50;100.00;96926.41;4978632;28;20510;-75
2023/04/21 04:49:39;;;;;;;376.15;79.35;;;3.70;99.90;;;2.58;100.00;96931.38;4988072;28;20911;-75
2023/04/21 04:52:05;;;;;;;369.20;76.75;;;3.70;99.90;;;2.64;100.00;96935.75;4990972;28;20406;-74
2023/04/21 04:54:31;;;;;;;293.37;62.67;;;3.90;99.90;;;2.68;100.00;96934.34;4990645;28;20422;-76
2023/04/21 04:56:59;;;;;;;262.75;55.42;;;3.90;99.90;;;2.72;100.00;96941.53;4992339;28;20398;-76
2023/04/21 04:59:25;;;;;;;222.98;49.58;;;3.90;99.90;;;2.75;100.00;96945.53;4994396;28;20907;-76
2023/04/21 05:01:51;;;;;;;205.57;48.53;;;3.90;99.90;;;2.80;100.00;96944.91;4994265;28;20481;-76
2023/04/21 05:04:18;;;;;;;371.63;78.13;;;4.00;99.90;;;2.83;100.00;96947.09;4994130;28;20457;-76
2023/04/21 05:06:44;;;;;;;331.20;67.10;;;4.00;99.90;;;2.87;100.00;96950.88;4994041;28;20426;-76
2023/04/21 05:09:11;;;;;;;274.23;56.17;;;4.10;99.90;;;2.90;100.00;96956.50;4992572;28;20913;-75
2023/04/21 05:11:37;;;;;;;234.68;49.40;;;4.10;99.90;;;2.92;100.00;96964.13;4993349;28;20893;-75
2023/04/21 05:14:03;;;;;;;223.30;45.47;;;4.10;99.90;;;2.93;100.00;96970.97;4993611;28;20486;-76
2023/04/21 05:16:29;;;;;;;249.40;52.17;;;4.10;99.90;;;2.93;100.00;96971.72;4990437;28;20413;-75
2023/04/21 05:18:54;;;;;;;216.85;44.08;;;4.10;99.90;;;2.94;100.00;96965.50;4990512;28;22085;-76
2023/04/21 05:21:26;;;;;;;265.10;54.80;;;4.10;99.90;;;2.96;100.00;96976.53;5000055;28;20490;-75
2023/04/21 05:23:52;;;;;;;223.13;50.05;;;4.20;99.90;;;3.00;100.00;96976.94;4994210;28;20443;-74
2023/04/21 05:26:18;;;;;;;283.23;56.33;;;4.20;99.90;;;3.04;100.00;96972.88;5000006;28;20414;-74
2023/04/21 05:28:44;;;;;;;311.23;63.13;;;4.20;99.90;;;3.07;100.00;96969.84;4994311;28;20485;-74
2023/04/21 05:31:10;;;;;;;257.17;51.72;;;4.20;99.90;;;3.10;100.00;96975.44;4980494;28;20413;-76
2023/04/21 05:33:36;;;;;;;313.38;62.03;;;4.30;99.90;;;3.12;100.00;96972.59;4993495;28;20830;-74
2023/04/21 05:36:05;;;;;;;258.17;50.23;;;4.30;99.90;;;3.17;100.00;96979.78;4994450;28;20513;-75
2023/04/21 05:38:32;;;;;;;237.35;47.75;;;4.30;99.90;;;3.20;100.00;96979.38;4992713;28;20407;-75
2023/04/21 05:40:58;;;;;;;220.23;45.22;;;4.40;99.90;;;3.26;100.00;96984.56;4991352;28;20410;-75
2023/04/21 05:43:24;;;;;;;205.07;45.65;;;4.40;99.90;;;3.34;100.00;96993.94;4983953;28;21055;-75
2023/04/21 05:45:50;;;;;;;367.47;76.13;;;4.50;99.90;;;3.39;100.00;96987.03;4991436;28;20425;-76
2023/04/21 05:48:16;;;;;;;383.70;77.97;;;4.50;99.90;;;3.42;100.00;96989.25;4998513;28;20430;-77
2023/04/21 05:50:42;;;;;;;354.77;70.95;;;4.60;99.90;;;3.51;100.00;96979.31;4991040;28;20498;-77
2023/04/21 05:53:08;;;;;;;376.47;81.20;;;4.60;99.90;;;3.50;100.00;96981.13;4994959;28;20403;-77
2023/04/21 05:55:35;;;;;;;377.02;80.32;;;4.70;99.90;;;3.50;100.00;96977.69;4994451;28;20407;-77
2023/04/21 05:58:01;;;;;;;360.60;80.22;;;4.60;99.90;;;3.50;100.00;96968.03;5002233;28;20516;-77
2023/04/21 06:00:27;;;;;;;392.80;82.47;;;4.60;99.90;;;3.49;100.00;96966.44;4994898;28;20402;-77
2023/04/21 06:02:53;;;;;;;425.17;84.43;;;4.70;99.90;;;3.54;100.00;96963.16;4995618;28;20564;-76
2023/04/21 06:05:19;;;;;;;375.00;81.70;;;4.70;99.90;;;3.58;100.00;96958.31;4993867;28;20414;-76
2023/04/21 06:07:45;;;;;;;383.33;81.03;;;4.70;99.90;;;3.61;100.00;96961.28;4983122;28;20451;-77
2023/04/21 06:10:13;;;;;;;366.60;71.93;;;4.80;99.90;;;3.74;100.00;96965.59;4983510;28;20404;-77
2023/04/21 06:12:40;;;;;;;370.13;77.47;;;4.80;99.90;;;3.79;100.00;96969.16;4995259;28;20411;-77
2023/04/21 06:15:07;;;;;;;363.85;68.88;;;4.90;99.90;;;3.90;100.00;96957.16;4994546;28;20414;-75
2023/04/21 06:17:33;;;;;;;302.37;58.77;;;5.00;99.90;;;4.07;100.00;96941.63;4976403;28;20945;-74
2023/04/21 06:19:59;;;;;;;289.17;58.15;;;5.10;99.90;;;4.19;100.00;96947.75;4986698;28;20478;-77
2023/04/21 06:22:26;;;;;;;305.25;54.85;;;5.30;99.90;;;4.29;100.00;96951.41;4993312;28;20410;-76
2023/04/21 06:24:52;;;;;;;281.90;53.38;;;5.40;99.90;;;4.42;100.00;96952.28;4993024;28;20881;-77
2023/04/21 06:27:18;;;;;;;269.67;53.33;;;5.50;99.90;;;4.50;100.00;96954.59;4992993;28;20421;-77
2023/04/21 06:29:45;;;;;;;206.48;42.08;;;5.50;99.90;;;4.63;100.00;96957.81;4985941;28;20406;-76
2023/04/21 06:32:11;;;;;;;266.38;51.80;;;5.70;99.90;;;4.74;100.00;96964.09;4991417;28;20406;-76
2023/04/21 06:37:15;;;;;;;269.38;61.28;;;5.80;99.90;;;4.84;100.00;96966.97;5008913;28;20428;-74
2023/04/21 06:39:41;;;;;;;224.37;47.27;;;5.90;99.90;;;4.90;100.00;96960.03;5010432;28;20416;-73
2023/04/21 06:42:07;;;;;;;247.73;47.70;;;5.90;99.90;;;4.95;100.00;96954.94;5011532;28;20405;-75
2023/04/21 06:44:32;;;;;;;236.40;50.67;;;6.00;99.90;;;5.03;100.00;96957.22;5004527;28;20879;-75
2023/04/21 06:47:00;;;;;;;232.57;48.15;;;6.10;99.90;;;5.09;100.00;96961.56;5019741;28;20461;-74
2023/04/21 06:49:26;;;;;;;250.82;52.88;;;6.10;99.90;;;5.09;100.00;96961.56;4998068;28;20409;-74
2023/04/21 06:51:51;;;;;;;205.48;42.22;;;6.10;99.90;;;5.13;100.00;96962.69;5010711;28;20488;-74
2023/04/21 06:54:17;;;;;;;158.90;35.40;;;6.10;99.90;;;5.14;100.00;96969.53;5003652;28;20448;-74
2023/04/21 06:56:43;;;;;;;160.40;37.30;;;6.20;99.90;;;5.16;100.00;96966.69;4996780;28;20410;-74
2023/04/21 06:59:09;;;;;;;263.48;50.08;;;6.20;99.90;;;5.04;100.00;96962.22;4990396;28;20438;-74
2023/04/21 07:01:35;;;;;;;241.43;47.83;;;6.10;99.90;;;4.97;100.00;96960.72;5001783;28;20492;-74
2023/04/21 07:04:04;;;;;;;221.38;43.92;;;6.10;99.90;;;4.93;100.00;96959.59;4999017;28;20417;-74
2023/04/21 07:06:31;;;;;;;239.20;48.25;;;6.00;99.90;;;4.87;100.00;96952.63;4996610;28;20407;-74
2023/04/21 07:08:56;;;;;;;232.40;45.45;;;5.90;99.90;;;4.85;100.00;96954.66;4999960;28;20504;-74
2023/04/21 07:11:22;;;;;;;228.40;44.38;;;5.90;99.90;;;4.82;100.00;96949.88;5015717;28;20424;-74
2023/04/21 07:13:48;;;;;;;227.33;45.13;;;5.90;99.90;;;4.84;100.00;96951.25;4998640;28;20402;-73
2023/04/21 07:16:14;;;;;;;248.48;49.45;;;5.90;99.90;;;4.84;100.00;96956.50;5007905;28;20837;-74
2023/04/21 07:18:40;;;;;;;257.55;50.85;;;5.90;99.90;;;4.85;100.00;96957.28;5009761;28;20463;-73
2023/04/21 07:21:08;;;;;;;235.07;48.22;;;5.90;99.90;;;4.84;100.00;96955.69;5010127;28;20893;-73
2023/04/21 07:23:33;;;;;;;252.45;49.63;;;5.90;99.90;;;4.86;100.00;96951.03;5010603;28;20435;-73
2023/04/21 07:25:59;;;;;;;262.60;50.07;;;5.90;99.90;;;4.88;100.00;96949.00;5009688;28;20452;-73
2023/04/21 07:28:25;;;;;;;258.98;50.53;;;5.90;99.90;;;4.91;100.00;96949.31;5010419;28;20459;-73
2023/04/21 07:30:51;;;;;;;233.93;52.40;;;6.00;99.90;;;4.98;100.00;96943.97;5008906;28;20416;-73
2023/04/21 07:33:17;;;;;;;230.55;54.17;;;6.00;99.90;;;5.16;100.00;96949.13;5008706;28;20515;-73
2023/04/21 07:35:43;;;;;;;224.20;51.47;;;6.20;99.90;;;5.25;100.00;96942.53;5010649;28;20412;-74
2023/04/21 07:38:10;;;;;;;280.13;60.05;;;6.30;99.90;;;5.30;100.00;96945.25;5010821;28;20874;-74
2023/04/21 07:40:36;;;;;;;227.75;47.83;;;6.40;99.90;;;5.37;100.00;96935.44;5010649;28;20408;-74
2023/04/21 07:43:02;;;;;;;230.82;49.40;;;6.40;99.90;;;5.44;100.00;96932.69;5010951;28;20475;-74
2023/04/21 07:45:28;;;;;;;166.60;42.55;;;6.50;99.90;;;5.55;100.00;96936.34;5004624;28;20897;-74
2023/04/21 07:47:53;;;;;;;230.80;51.10;;;6.50;99.90;;;5.58;100.00;96933.25;5010641;28;20408;-73
2023/04/21 07:50:19;;;;;;;216.03;49.10;;;6.60;99.90;;;5.64;100.00;96942.84;5010607;28;20463;-73
2023/04/21 07:52:46;;;;;;;174.77;41.38;;;6.60;99.90;;;5.76;100.00;96935.75;5005075;28;20404;-73
2023/04/21 07:55:14;;;;;;;191.60;45.28;;;6.70;99.90;;;5.81;100.00;96933.22;4990929;28;20425;-73
2023/04/21 07:57:40;;;;;;;179.32;40.33;;;6.80;99.90;;;5.93;100.00;96931.41;4991109;28;20790;-73
2023/04/21 08:00:10;;;;;;;161.45;39.72;;;6.90;99.90;;;5.96;100.00;96928.31;4990917;28;20406;-74
2023/04/21 08:02:36;;;;;;;168.65;40.55;;;6.90;99.90;;;6.11;100.00;96927.81;4991066;28;20550;-74
2023/04/21 08:05:02;;;;;;;159.25;38.33;;;7.10;99.90;;;6.16;100.00;96925.28;4996904;28;20409;-75
2023/04/21 08:07:28;;;;;;;137.98;34.60;;;7.10;99.90;;;6.27;100.00;96921.00;5009196;28;20420;-75
2023/04/21 08:09:54;;;;;;;129.53;31.30;;;7.20;99.90;;;6.33;100.00;96926.13;5010459;28;20408;-74
2023/04/21 08:12:22;;;;;;;111.85;28.05;;;7.20;99.90;;;6.37;100.00;96927.25;5010565;28;20462;-74
2023/04/21 08:14:48;;;;;;;99.18;31.98;;;7.30;99.90;;;6.56;100.00;96923.38;5010386;28;20405;-75
2023/04/21 08:17:14;;;;;;;113.27;30.60;;;7.50;99.90;;;6.49;100.00;96914.84;5010414;28;20938;-74
2023/04/21 08:19:40;;;;;;;116.85;31.50;;;7.40;99.90;;;6.49;100.00;96916.69;5010266;28;20438;-75
2023/04/21 08:22:06;;;;;;;85.30;24.92;;;7.40;99.90;;;6.63;100.00;96917.97;5009127;28;20491;-73
2023/04/21 08:24:32;;;;;;;103.93;29.02;;;7.50;99.90;;;6.64;100.00;96911.69;5008995;28;20479;-75
2023/04/21 08:26:58;;;;;;;78.50;23.25;;;7.60;99.90;;;6.75;100.00;96918.72;5010410;28;20412;-74
2023/04/21 08:29:25;;;;;;;85.53;27.80;;;7.60;99.90;;;6.75;100.00;96920.56;5000275;28;20425;-74
2023/04/21 08:31:51;;;;;;;70.95;22.77;;;7.70;99.90;;;6.83;100.00;96915.72;5008892;28;20405;-74
2023/04/21 08:34:18;;;;;;;76.18;22.67;;;7.70;99.90;;;6.90;100.00;96915.56;5005873;28;20419;-73
2023/04/21 08:36:45;;;;;;;65.65;20.98;;;7.80;99.90;;;6.99;100.00;96908.84;5014371;28;20412;-72
2023/04/21 08:39:12;;;;;;;51.75;18.23;;;7.90;99.90;;;7.12;100.00;96908.53;5014563;28;20785;-73
2023/04/21 08:41:42;;;;;;;56.47;20.00;;;8.00;99.90;;;7.16;100.00;96909.63;5014336;28;20397;-73
2023/04/21 08:44:10;;;;;;;64.53;22.33;;;8.00;99.90;;;7.24;100.00;96900.53;5014367;28;20492;-73
2023/04/21 08:46:38;;;;;;;62.63;22.50;;;8.10;99.90;;;7.31;100.00;96899.31;5014456;28;20416;-73
2023/04/21 08:49:05;;;;;;;56.58;21.13;;;8.10;99.90;;;7.41;100.00;96909.22;5014298;28;21054;-73
2023/04/21 08:51:31;;;;;;;62.08;22.95;;;8.20;99.90;;;7.50;100.00;96896.44;5014082;28;20425;-73
2023/04/21 08:53:57;;;;;;;45.70;22.90;;;8.40;99.90;;;7.64;100.00;96909.00;5014213;28;20881;-73
2023/04/21 08:56:27;;;;;;;48.30;19.95;;;8.50;99.90;;;7.63;100.00;96909.22;5014068;28;20433;-73
2023/04/21 08:58:53;;;;;;;51.33;22.07;;;8.50;99.90;;;7.71;100.00;96909.63;5029293;28;20835;-73
2023/04/21 09:01:19;;;;;;;46.58;21.48;;;8.50;99.90;;;7.72;100.00;96913.06;5014100;28;20408;-74
2023/04/21 09:03:46;;;;;;;42.47;19.98;;;8.60;99.90;;;7.85;100.00;96906.63;5013829;28;20405;-74
2023/04/21 09:06:12;;;;;;;41.90;21.05;;;8.70;99.90;;;7.92;100.00;96900.13;5014079;28;20413;-74
2023/04/21 09:08:42;;;;;;;38.63;18.17;;;8.70;99.90;;;8.01;100.00;96906.56;5013684;28;20504;-74
2023/04/21 09:11:12;;;;;;;35.63;16.45;;;8.80;99.90;;;8.10;100.00;96902.44;5013724;28;20496;-73
2023/04/21 09:13:38;;;;;;;32.40;16.13;;;8.90;99.90;;;8.19;100.00;96904.66;5011201;28;20416;-73
2023/04/21 09:16:16;;;;;;;36.67;19.23;;;9.00;99.90;;;8.27;100.00;96906.84;5009261;28;20778;-73
2023/04/21 09:18:43;;;;;;;30.15;17.25;;;9.10;99.90;;;8.36;100.00;96898.25;5012752;28;20826;-73
2023/04/21 09:21:12;;;;;;;33.53;17.33;;;9.20;99.90;;;8.44;100.00;96894.38;5013613;28;20397;-73
2023/04/21 09:23:42;;;;;;;31.30;17.87;;;9.20;99.90;;;8.53;100.00;96895.53;5012126;28;20401;-73
2023/04/21 09:26:09;;;;;;;29.88;17.70;;;9.30;99.90;;;8.62;100.00;96901.16;5013580;28;20407;-73
2023/04/21 09:28:35;;;;;;;27.60;15.88;;;9.40;99.90;;;8.76;100.00;96899.69;5013586;28;20486;-72
2023/04/21 09:31:01;;;;;;;27.10;15.60;;;9.50;99.90;;;8.87;100.00;96899.50;5012068;28;20488;-73
2023/04/21 09:33:27;;;;;;;23.80;14.25;;;9.60;99.90;;;9.03;100.00;96897.78;5013405;28;21022;-73
2023/04/21 09:35:53;;;;;;;21.10;13.90;;;9.80;99.90;;;9.05;100.00;96895.69;5013591;28;20488;-73
2023/04/21 09:38:21;;;;;;;20.60;14.13;;;9.80;99.90;;;9.12;100.00;96890.19;5013591;28;20397;-73
2023/04/21 09:40:56;;;;;;;20.67;13.77;;;9.90;99.90;;;9.16;100.00;96886.81;5013108;28;20440;-73
2023/04/21 09:43:22;;;;;;;23.97;14.27;;;9.90;99.90;;;9.17;100.00;96888.38;5012847;28;20409;-73
2023/04/21 09:45:49;;;;;;;25.80;14.20;;;9.90;99.90;;;9.32;100.00;96882.44;5009190;28;20524;-73
2023/04/21 09:48:17;;;;;;;22.15;13.60;;;10.10;99.90;;;9.36;100.00;96894.06;5021766;28;20455;-73
2023/04/21 09:50:45;;;;;;;23.33;13.68;;;10.10;99.90;;;9.51;100.00;96882.78;5028805;28;20958;-72
2023/04/21 09:53:15;;;;;;;21.63;13.57;;;10.30;99.90;;;9.51;100.00;96888.06;5017808;28;20407;-74
2023/04/21 09:55:48;;;;;;;21.98;14.68;;;10.30;99.90;;;9.56;100.00;96890.72;5022881;28;20432;-73
2023/04/21 09:58:19;;;;;;;17.52;12.93;;;10.30;99.90;;;9.60;100.00;96887.34;5024959;28;20426;-73
2023/04/21 10:00:45;;;;;;;21.17;13.00;;;10.40;99.90;;;9.74;100.00;96885.03;5008314;28;20468;-74
2023/04/21 10:03:13;;;;;;;19.55;12.00;;;10.50;99.90;;;9.83;100.00;96880.84;5017699;28;20406;-74
2023/04/21 10:05:39;;;;;;;18.10;11.75;;;10.60;99.90;;;9.97;100.00;96886.44;5019438;28;20411;-74
2023/04/21 10:08:06;;;;;;;17.92;11.63;;;10.70;99.90;;;10.10;100.00;96870.88;5006066;28;20414;-75